createdAt,value
2019-03-25T00:02:29.623Z,6.99
2019-03-25T00:04:59.389Z,6.89
2019-03-25T00:07:29.153Z,6.84
2019-03-25T00:09:59.090Z,6.68
2019-03-25T00:12:29.219Z,6.68
2019-03-25T00:14:59.049Z,6.56
2019-03-25T00:17:28.843Z,6.48
2019-03-25T00:19:58.659Z,6.35
2019-03-25T00:22:28.328Z,6.24
2019-03-25T00:24:58.099Z,6.23
2019-03-25T00:27:27.908Z,6.17
2019-03-25T00:29:57.692Z,6.11
2019-03-25T00:32:29.815Z,6.13
2019-03-25T00:34:59.571Z,6.10
2019-03-25T00:37:29.324Z,6.10
2019-03-25T00:39:59.114Z,6.08
2019-03-25T00:42:31.278Z,6.05
2019-03-25T00:45:01.093Z,5.98
2019-03-25T00:47:32.839Z,5.87
2019-03-25T00:50:02.616Z,5.77
2019-03-25T00:52:32.413Z,5.78
2019-03-25T00:55:02.215Z,5.76
2019-03-25T00:57:31.976Z,5.74
2019-03-25T01:00:01.767Z,5.71
2019-03-25T01:02:31.577Z,5.76
2019-03-25T01:05:01.349Z,5.73
2019-03-25T01:07:31.133Z,5.69
2019-03-25T01:10:00.959Z,5.69
2019-03-25T01:12:30.691Z,5.81
2019-03-25T01:15:00.487Z,5.82
2019-03-25T01:17:31.529Z,5.85
2019-03-25T01:20:01.365Z,5.90
2019-03-25T01:22:31.503Z,5.90
2019-03-25T01:25:02.583Z,5.89
2019-03-25T01:27:33.557Z,5.88
2019-03-25T01:30:05.789Z,5.90
2019-03-25T01:32:35.588Z,5.97
2019-03-25T01:35:06.500Z,5.92
2019-03-25T01:37:36.303Z,5.88
2019-03-25T01:40:07.524Z,5.54
2019-03-25T01:42:37.578Z,5.56
2019-03-25T01:45:07.398Z,5.72
2019-03-25T01:47:37.209Z,5.63
2019-03-25T01:50:07.436Z,5.53
2019-03-25T01:52:37.258Z,5.55
2019-03-25T01:55:13.275Z,5.57
2019-03-25T01:57:38.713Z,5.63
2019-03-25T02:00:08.696Z,5.71
2019-03-25T02:02:38.511Z,5.75
2019-03-25T02:05:08.300Z,5.79
2019-03-25T02:07:38.030Z,5.73
2019-03-25T02:10:10.176Z,5.81
2019-03-25T02:12:40.046Z,5.72
2019-03-25T02:15:09.831Z,5.71
2019-03-25T02:17:39.620Z,5.71
2019-03-25T02:20:09.495Z,5.80
2019-03-25T02:22:40.027Z,5.68
2019-03-25T02:25:10.065Z,5.82
2019-03-25T02:27:40.400Z,6.02
2019-03-25T02:30:10.281Z,5.97
2019-03-25T02:32:40.100Z,5.84
2019-03-25T02:35:09.867Z,5.78
2019-03-25T02:37:39.651Z,5.71
2019-03-25T02:40:09.429Z,5.86
2019-03-25T02:42:39.231Z,5.86
2019-03-25T02:45:09.099Z,5.83
2019-03-25T02:47:38.871Z,5.89
2019-03-25T02:50:08.775Z,5.88
2019-03-25T02:52:38.537Z,5.84
2019-03-25T02:55:08.542Z,5.98
2019-03-25T02:57:38.401Z,6.06
2019-03-25T03:00:09.610Z,5.98
2019-03-25T03:02:39.793Z,5.95
2019-03-25T03:05:09.907Z,6.11
2019-03-25T03:07:39.703Z,6.13
2019-03-25T03:10:09.528Z,6.11
2019-03-25T03:12:39.319Z,6.08
2019-03-25T03:15:09.213Z,6.06
2019-03-25T03:17:39.008Z,6.05
2019-03-25T03:20:08.820Z,6.04
2019-03-25T03:22:38.618Z,6.02
2019-03-25T03:25:08.458Z,6.05
2019-03-25T03:27:38.205Z,6.05
2019-03-25T03:30:08.292Z,6.06
2019-03-25T03:32:38.051Z,6.02
2019-03-25T03:35:08.250Z,6.07
2019-03-25T03:37:38.052Z,6.11
2019-03-25T03:40:07.928Z,6.13
2019-03-25T03:42:37.897Z,6.21
2019-03-25T03:45:08.032Z,6.15
2019-03-25T03:47:37.807Z,5.88
2019-03-25T03:50:14.059Z,5.76
2019-03-25T03:52:44.586Z,5.74
2019-03-25T03:55:14.329Z,5.75
2019-03-25T03:57:44.162Z,5.79
2019-03-25T04:00:16.950Z,5.89
2019-03-25T04:02:46.730Z,5.93
2019-03-25T04:05:16.524Z,5.86
2019-03-25T04:07:47.053Z,5.88
2019-03-25T04:10:16.836Z,5.69
2019-03-25T04:12:46.652Z,5.61
2019-03-25T04:15:27.693Z,5.53
2019-03-25T04:17:58.281Z,5.49
2019-03-25T04:20:27.886Z,5.45
2019-03-25T04:22:58.070Z,5.43
2019-03-25T04:25:29.484Z,5.46
2019-03-25T04:27:59.238Z,5.36
2019-03-25T04:30:28.840Z,5.31
2019-03-25T04:32:58.660Z,5.28
2019-03-25T04:35:28.438Z,5.30
2019-03-25T04:37:58.233Z,5.31
2019-03-25T04:40:28.023Z,5.26
2019-03-25T04:43:00.491Z,5.22
2019-03-25T04:45:30.318Z,5.27
2019-03-25T04:48:00.018Z,5.24
2019-03-25T04:50:29.805Z,5.26
2019-03-25T04:52:59.627Z,5.29
2019-03-25T04:55:30.877Z,5.35
2019-03-25T04:58:00.661Z,5.38
2019-03-25T05:00:35.253Z,5.41
2019-03-25T05:03:05.226Z,5.45
2019-03-25T05:05:36.309Z,5.49
2019-03-25T05:08:06.263Z,5.52
2019-03-25T05:10:36.090Z,5.53
2019-03-25T05:13:05.892Z,5.53
2019-03-25T05:15:35.636Z,5.61
2019-03-25T05:18:05.471Z,5.57
2019-03-25T05:20:35.256Z,5.63
2019-03-25T05:23:05.120Z,5.57
2019-03-25T05:25:35.008Z,5.51
2019-03-25T05:28:04.704Z,5.49
2019-03-25T05:30:34.561Z,5.50
2019-03-25T05:33:04.339Z,5.77
2019-03-25T05:35:34.175Z,5.68
2019-03-25T05:38:03.993Z,5.61
2019-03-25T05:40:33.774Z,5.58
2019-03-25T05:43:03.586Z,5.67
2019-03-25T05:45:33.389Z,5.73
2019-03-25T05:48:03.201Z,5.64
2019-03-25T05:50:33.015Z,5.69
2019-03-25T05:53:02.858Z,5.71
2019-03-25T05:55:33.044Z,5.89
2019-03-25T05:58:02.861Z,5.90
2019-03-25T06:00:34.210Z,5.72
2019-03-25T06:03:03.975Z,5.83
2019-03-25T06:05:34.595Z,5.99
2019-03-25T06:08:04.410Z,6.15
2019-03-25T06:10:34.510Z,6.27
2019-03-25T06:13:04.320Z,6.40
2019-03-25T06:15:34.153Z,6.44
2019-03-25T06:18:05.509Z,6.85
2019-03-25T06:20:35.812Z,7.72
2019-03-25T06:23:05.565Z,8.08
2019-03-25T06:25:35.365Z,8.20
2019-03-25T06:28:05.163Z,8.52
2019-03-25T06:30:34.981Z,8.70
2019-03-25T06:33:12.295Z,8.70
2019-03-25T06:35:36.298Z,8.78
2019-03-25T06:38:06.428Z,9.12
2019-03-25T06:40:36.186Z,9.19
2019-03-25T06:43:05.996Z,9.32
2019-03-25T06:45:37.247Z,9.48
2019-03-25T06:48:07.070Z,9.48
2019-03-25T06:50:37.828Z,9.62
2019-03-25T06:53:07.637Z,9.57
2019-03-25T06:55:37.411Z,9.44
2019-03-25T06:58:07.248Z,9.29
2019-03-25T07:00:37.081Z,9.25
2019-03-25T07:03:06.849Z,9.16
2019-03-25T07:05:36.706Z,9.18
2019-03-25T07:08:06.516Z,9.40
2019-03-25T07:10:37.180Z,9.46
2019-03-25T07:13:07.311Z,9.77
2019-03-25T07:15:37.064Z,9.98
2019-03-25T07:18:06.954Z,10.19
2019-03-25T07:20:36.794Z,10.21
2019-03-25T07:23:06.616Z,10.17
2019-03-25T07:25:36.486Z,10.15
2019-03-25T07:28:06.313Z,10.05
2019-03-25T07:30:36.111Z,10.08
2019-03-25T07:33:05.984Z,10.17
2019-03-25T07:35:35.779Z,10.10
2019-03-25T07:38:06.800Z,9.89
2019-03-25T07:40:36.629Z,9.78
2019-03-25T07:43:06.926Z,9.83
2019-03-25T07:45:36.769Z,9.91
2019-03-25T07:48:06.592Z,10.03
2019-03-25T07:50:36.422Z,9.99
2019-03-25T07:53:06.253Z,9.99
2019-03-25T07:55:36.057Z,10.02
2019-03-25T07:58:05.900Z,10.20
2019-03-25T08:00:37.773Z,10.59
2019-03-25T08:03:07.626Z,10.75
2019-03-25T08:05:37.429Z,10.79
2019-03-25T08:08:07.479Z,11.02
2019-03-25T08:10:37.631Z,11.18
2019-03-25T08:13:07.500Z,11.17
2019-03-25T08:15:37.440Z,11.28
2019-03-25T08:18:08.530Z,11.35
2019-03-25T08:20:39.334Z,11.46
2019-03-25T08:23:09.168Z,11.35
2019-03-25T08:25:39.094Z,11.41
2019-03-25T08:28:08.933Z,11.49
2019-03-25T08:30:38.725Z,11.72
2019-03-25T08:33:09.013Z,12.04
2019-03-25T08:35:38.925Z,12.39
2019-03-25T08:38:08.863Z,12.63
2019-03-25T08:40:38.813Z,12.82
2019-03-25T08:43:08.611Z,12.90
2019-03-25T08:45:38.416Z,12.83
2019-03-25T08:48:08.228Z,12.82
2019-03-25T08:50:38.021Z,12.99
2019-03-25T08:53:07.909Z,13.21
2019-03-25T08:55:37.738Z,13.28
2019-03-25T08:58:12.285Z,13.25
2019-03-25T09:00:41.197Z,13.26
2019-03-25T09:03:11.128Z,13.47
2019-03-25T09:05:41.067Z,13.49
2019-03-25T09:08:11.736Z,13.61
2019-03-25T09:10:41.677Z,13.61
2019-03-25T09:13:11.481Z,13.70
2019-03-25T09:15:41.288Z,13.92
2019-03-25T09:18:11.232Z,13.97
2019-03-25T09:20:41.337Z,14.07
2019-03-25T09:23:11.289Z,14.09
2019-03-25T09:25:41.975Z,14.00
2019-03-25T09:28:23.421Z,13.94
2019-03-25T09:30:55.422Z,13.74
2019-03-25T09:33:25.215Z,13.77
2019-03-25T09:35:55.167Z,13.66
2019-03-25T09:38:25.127Z,13.98
2019-03-25T09:40:54.926Z,14.15
2019-03-25T09:43:25.907Z,14.12
2019-03-25T09:45:57.499Z,14.27
2019-03-25T09:48:27.292Z,14.06
2019-03-25T09:50:57.116Z,14.05
2019-03-25T09:53:26.833Z,14.05
2019-03-25T09:55:56.692Z,14.21
2019-03-25T09:58:35.852Z,14.49
2019-03-25T10:00:57.962Z,14.71
2019-03-25T10:03:27.775Z,14.47
2019-03-25T10:05:57.610Z,14.67
2019-03-25T10:08:29.046Z,14.75
2019-03-25T10:10:58.882Z,14.85
2019-03-25T10:13:28.693Z,15.18
2019-03-25T10:15:58.469Z,14.96
2019-03-25T10:18:28.217Z,15.05
2019-03-25T10:20:58.038Z,14.68
2019-03-25T10:23:27.832Z,14.37
2019-03-25T10:25:57.674Z,14.23
2019-03-25T10:28:28.310Z,13.93
2019-03-25T10:30:58.119Z,13.96
2019-03-25T10:33:28.146Z,13.79
2019-03-25T10:35:58.124Z,13.99
2019-03-25T10:38:27.845Z,13.92
2019-03-25T10:40:57.665Z,14.04
2019-03-25T10:43:27.528Z,14.10
2019-03-25T10:45:57.526Z,13.96
2019-03-25T10:48:27.338Z,13.51
2019-03-25T10:50:57.181Z,13.51
2019-03-25T10:53:27.994Z,13.27
2019-03-25T10:55:57.799Z,13.10
2019-03-25T10:58:27.636Z,12.77
2019-03-25T11:00:57.619Z,12.47
2019-03-25T11:03:27.890Z,12.26
2019-03-25T11:06:00.020Z,11.94
2019-03-25T11:08:29.922Z,11.79
2019-03-25T11:11:01.047Z,11.65
2019-03-25T11:13:30.759Z,11.57
2019-03-25T11:16:00.550Z,11.31
2019-03-25T11:18:30.318Z,11.22
2019-03-25T11:21:00.159Z,11.17
2019-03-25T11:23:29.955Z,11.02
2019-03-25T11:25:59.809Z,10.78
2019-03-25T11:28:29.588Z,10.78
2019-03-25T11:30:59.431Z,10.65
2019-03-25T11:33:29.313Z,10.35
2019-03-25T11:35:59.293Z,10.24
2019-03-25T11:38:29.977Z,10.36
2019-03-25T11:40:59.937Z,10.38
2019-03-25T11:43:29.878Z,10.33
2019-03-25T11:45:59.707Z,10.27
2019-03-25T11:48:29.415Z,10.34
2019-03-25T11:50:59.096Z,10.30
2019-03-25T11:53:28.997Z,10.56
2019-03-25T11:55:58.810Z,10.81
2019-03-25T11:58:28.628Z,10.81
2019-03-25T12:01:00.350Z,10.84
2019-03-25T12:03:30.317Z,10.78
2019-03-25T12:06:01.747Z,10.82
2019-03-25T12:08:31.449Z,10.76
2019-03-25T12:11:01.242Z,10.66
2019-03-25T12:13:31.073Z,10.65
2019-03-25T12:16:00.890Z,10.47
2019-03-25T12:18:31.003Z,10.47
2019-03-25T12:21:00.762Z,10.59
2019-03-25T12:23:30.563Z,10.61
2019-03-25T12:26:02.150Z,10.60
2019-03-25T12:28:32.050Z,10.74
2019-03-25T12:31:02.048Z,10.79
2019-03-25T12:33:31.728Z,10.74
2019-03-25T12:36:01.524Z,10.65
2019-03-25T12:38:31.299Z,10.47
2019-03-25T12:41:01.161Z,10.30
2019-03-25T12:43:33.629Z,10.21
2019-03-25T12:46:04.133Z,10.09
2019-03-25T12:48:34.004Z,10.01
2019-03-25T12:51:03.788Z,9.88
2019-03-25T12:53:36.156Z,9.89
2019-03-25T12:56:06.003Z,9.83
2019-03-25T12:58:35.780Z,9.96
2019-03-25T13:01:05.505Z,9.87
2019-03-25T13:03:35.402Z,9.60
2019-03-25T13:06:05.185Z,8.48
2019-03-25T13:08:35.078Z,8.39
2019-03-25T13:11:04.967Z,8.08
2019-03-25T13:13:36.150Z,7.92
2019-03-25T13:16:06.329Z,7.64
2019-03-25T13:18:36.176Z,7.41
2019-03-25T13:21:07.702Z,7.41
2019-03-25T13:23:37.503Z,7.49
2019-03-25T13:26:07.399Z,7.54
2019-03-25T13:28:37.467Z,7.63
2019-03-25T13:31:08.439Z,7.19
2019-03-25T13:33:38.262Z,7.39
2019-03-25T13:36:08.020Z,7.40
2019-03-25T13:38:37.784Z,7.31
2019-03-25T13:41:10.647Z,7.49
2019-03-25T13:43:40.414Z,7.82
2019-03-25T13:46:11.936Z,8.00
2019-03-25T13:48:42.549Z,8.18
2019-03-25T13:51:12.393Z,8.42
2019-03-25T13:53:42.214Z,8.34
2019-03-25T13:56:12.108Z,8.34
2019-03-25T13:58:41.770Z,8.43
2019-03-25T14:01:11.559Z,8.24
2019-03-25T14:03:43.070Z,8.21
2019-03-25T14:06:12.877Z,8.08
2019-03-25T14:08:42.735Z,8.06
2019-03-25T14:11:12.869Z,8.04
2019-03-25T14:13:49.198Z,8.10
2019-03-25T14:16:14.216Z,8.20
2019-03-25T14:18:44.343Z,8.08
2019-03-25T14:21:14.144Z,7.89
2019-03-25T14:23:44.027Z,7.94
2019-03-25T14:26:15.487Z,7.85
2019-03-25T14:28:46.864Z,7.93
2019-03-25T14:31:16.726Z,7.85
2019-03-25T14:33:46.585Z,7.61
2019-03-25T14:36:16.464Z,7.55
2019-03-25T14:38:46.454Z,7.54
2019-03-25T14:41:16.224Z,7.43
2019-03-25T14:43:45.982Z,7.33
2019-03-25T14:46:15.774Z,7.30
2019-03-25T14:48:45.629Z,7.24
2019-03-25T14:51:15.382Z,7.14
2019-03-25T14:53:45.597Z,7.07
2019-03-25T14:56:15.766Z,7.19
2019-03-25T14:58:45.549Z,7.04
2019-03-25T15:01:15.324Z,6.69
2019-03-25T15:03:45.092Z,6.56
2019-03-25T15:06:14.849Z,6.47
2019-03-25T15:08:44.666Z,6.39
2019-03-25T15:11:14.846Z,6.33
2019-03-25T15:13:44.650Z,6.16
2019-03-25T15:16:14.593Z,6.06
2019-03-25T15:18:44.456Z,6.01
2019-03-25T15:21:14.380Z,5.97
2019-03-25T15:23:44.540Z,5.99
2019-03-25T15:26:14.554Z,5.93
2019-03-25T15:28:44.476Z,5.75
2019-03-25T15:31:14.229Z,5.80
2019-03-25T15:33:44.059Z,5.82
2019-03-25T15:36:13.822Z,5.78
2019-03-25T15:38:43.614Z,5.75
2019-03-25T15:41:13.617Z,5.81
2019-03-25T15:43:43.414Z,5.75
2019-03-25T15:46:13.348Z,5.70
2019-03-25T15:48:43.218Z,5.84
2019-03-25T15:51:13.067Z,5.80
2019-03-25T15:53:42.871Z,5.79
2019-03-25T15:56:13.572Z,5.85
2019-03-25T15:58:43.744Z,5.83
2019-03-25T16:01:13.762Z,5.71
2019-03-25T16:03:43.572Z,5.77
2019-03-25T16:06:13.390Z,5.74
2019-03-25T16:08:43.181Z,5.73
2019-03-25T16:11:13.409Z,5.80
2019-03-25T16:13:43.259Z,5.78
2019-03-25T16:16:13.082Z,5.80
2019-03-25T16:18:42.964Z,5.82
2019-03-25T16:21:12.935Z,5.83
2019-03-25T16:23:42.845Z,5.80
2019-03-25T16:26:12.750Z,5.91
2019-03-25T16:28:42.605Z,5.88
2019-03-25T16:31:13.726Z,5.70
2019-03-25T16:33:44.096Z,5.64
2019-03-25T16:36:14.104Z,5.65
2019-03-25T16:38:44.088Z,5.56
2019-03-25T16:41:13.906Z,5.49
2019-03-25T16:43:43.776Z,5.50
2019-03-25T16:46:14.236Z,5.59
2019-03-25T16:48:43.962Z,5.67
2019-03-25T16:51:13.865Z,5.56
2019-03-25T16:53:44.082Z,5.58
2019-03-25T16:56:15.804Z,5.64
2019-03-25T16:58:45.594Z,5.57
2019-03-25T17:01:15.396Z,5.51
2019-03-25T17:03:45.394Z,5.75
2019-03-25T17:06:15.502Z,5.92
2019-03-25T17:08:45.314Z,5.83
2019-03-25T17:11:15.173Z,5.75
2019-03-25T17:13:47.966Z,5.71
2019-03-25T17:16:17.808Z,5.80
2019-03-25T17:18:47.721Z,5.86
2019-03-25T17:21:17.517Z,5.75
2019-03-25T17:23:48.501Z,5.83
2019-03-25T17:26:18.963Z,6.01
2019-03-25T17:28:49.389Z,5.93
2019-03-25T17:31:21.266Z,5.87
2019-03-25T17:33:50.657Z,5.84
2019-03-25T17:36:20.426Z,5.93
2019-03-25T17:38:50.245Z,5.87
2019-03-25T17:41:20.034Z,5.75
2019-03-25T17:43:49.935Z,5.77
2019-03-25T17:46:19.729Z,5.55
2019-03-25T17:48:51.476Z,5.54
2019-03-25T17:51:21.316Z,5.58
2019-03-25T17:53:51.271Z,5.52
2019-03-25T17:56:22.514Z,5.44
2019-03-25T17:58:54.014Z,5.38
2019-03-25T18:01:32.140Z,5.35
2019-03-25T18:03:57.740Z,5.26
2019-03-25T18:06:27.633Z,5.12
2019-03-25T18:08:58.302Z,5.01
2019-03-25T18:11:28.293Z,4.93
2019-03-25T18:13:58.338Z,4.90
2019-03-25T18:16:29.627Z,4.85
2019-03-25T18:18:59.535Z,4.86
2019-03-25T18:21:29.474Z,4.82
2019-03-25T18:23:59.424Z,4.79
2019-03-25T18:26:29.400Z,4.84
2019-03-25T18:28:59.262Z,4.76
2019-03-25T18:31:29.064Z,4.58
2019-03-25T18:33:59.108Z,4.61
2019-03-25T18:36:30.178Z,4.53
2019-03-25T18:39:00.073Z,4.56
2019-03-25T18:41:30.362Z,4.61
2019-03-25T18:44:01.456Z,4.63
2019-03-25T18:46:33.320Z,4.58
2019-03-25T18:49:02.902Z,4.59
2019-03-25T18:51:32.760Z,4.55
2019-03-25T18:54:02.625Z,4.45
2019-03-25T18:56:32.809Z,4.50
2019-03-25T18:59:03.877Z,4.52
2019-03-25T19:01:33.716Z,4.50
2019-03-25T19:04:03.726Z,4.59
2019-03-25T19:06:33.794Z,4.45
2019-03-25T19:09:04.477Z,4.39
2019-03-25T19:11:34.667Z,4.43
2019-03-25T19:14:05.248Z,4.30
2019-03-25T19:16:36.685Z,4.06
2019-03-25T19:19:07.639Z,4.19
2019-03-25T19:21:37.378Z,4.46
2019-03-25T19:24:07.507Z,4.47
2019-03-25T19:26:37.389Z,4.48
2019-03-25T19:29:07.235Z,4.54
2019-03-25T19:31:37.057Z,4.37
2019-03-25T19:34:06.943Z,4.43
2019-03-25T19:36:36.771Z,4.17
2019-03-25T19:39:07.352Z,4.22
2019-03-25T19:41:38.285Z,4.20
2019-03-25T19:44:08.181Z,4.06
2019-03-25T19:46:39.165Z,3.95
2019-03-25T19:49:10.608Z,4.09
2019-03-25T19:51:42.017Z,3.93
2019-03-25T19:54:12.249Z,4.01
2019-03-25T19:56:42.129Z,3.90
2019-03-25T19:59:11.964Z,3.86
2019-03-25T20:01:41.792Z,3.73
2019-03-25T20:04:16.677Z,3.77
2019-03-25T20:06:46.536Z,3.80
2019-03-25T20:09:16.400Z,3.84
2019-03-25T20:11:46.260Z,3.92
2019-03-25T20:14:18.123Z,3.83
2019-03-25T20:16:48.302Z,3.83
2019-03-25T20:19:18.054Z,3.67
2019-03-25T20:21:47.928Z,3.67
2019-03-25T20:24:20.568Z,3.71
2019-03-25T20:26:50.402Z,3.58
2019-03-25T20:29:20.615Z,3.60
2019-03-25T20:31:50.847Z,3.39
2019-03-25T20:34:20.774Z,3.47
2019-03-25T20:36:52.412Z,3.43
2019-03-25T20:39:22.390Z,3.54
2019-03-25T20:41:52.281Z,3.49
2019-03-25T20:44:22.165Z,3.25
2019-03-25T20:46:52.068Z,3.38
2019-03-25T20:49:22.272Z,3.42
2019-03-25T20:51:52.255Z,3.45
2019-03-25T20:54:22.186Z,3.37
2019-03-25T20:56:52.049Z,3.34
2019-03-25T20:59:21.822Z,3.38
2019-03-25T21:01:51.743Z,3.20
2019-03-25T21:04:21.586Z,3.24
2019-03-25T21:06:54.473Z,3.12
2019-03-25T21:09:23.028Z,3.23
2019-03-25T21:11:52.835Z,3.21
2019-03-25T21:14:22.690Z,3.11
2019-03-25T21:16:52.529Z,3.23
2019-03-25T21:19:23.250Z,3.23
2019-03-25T21:21:53.166Z,3.10
2019-03-25T21:24:23.175Z,3.05
2019-03-25T21:26:53.717Z,3.15
2019-03-25T21:29:24.036Z,3.17
2019-03-25T21:31:54.066Z,3.03
2019-03-25T21:34:24.031Z,2.89
2019-03-25T21:36:53.865Z,2.89
2019-03-25T21:39:23.737Z,3.02
2019-03-25T21:41:53.621Z,2.91
2019-03-25T21:44:23.403Z,2.99
2019-03-25T21:46:53.314Z,2.99
2019-03-25T21:49:23.261Z,2.94
2019-03-25T21:51:53.050Z,2.94
2019-03-25T21:54:24.894Z,2.86
2019-03-25T21:56:55.125Z,2.86
2019-03-25T21:59:25.352Z,2.86
2019-03-25T22:01:55.207Z,2.78
2019-03-25T22:04:24.929Z,2.83
2019-03-25T22:06:54.727Z,2.82
2019-03-25T22:09:24.551Z,2.84
2019-03-25T22:11:54.397Z,2.75
2019-03-25T22:14:25.754Z,2.69
2019-03-25T22:16:55.595Z,2.67
2019-03-25T22:19:25.887Z,2.50
2019-03-25T22:21:55.664Z,2.55
2019-03-25T22:24:25.491Z,2.63
2019-03-25T22:26:55.293Z,2.67
2019-03-25T22:29:25.104Z,2.51
2019-03-25T22:31:54.983Z,2.43
2019-03-25T22:34:24.774Z,2.45
2019-03-25T22:36:54.529Z,2.48
2019-03-25T22:39:24.305Z,2.22
2019-03-25T22:41:54.073Z,2.27
2019-03-25T22:44:23.859Z,2.20
2019-03-25T22:46:53.618Z,2.25
2019-03-25T22:49:23.421Z,2.24
2019-03-25T22:51:53.233Z,2.21
2019-03-25T22:54:22.975Z,2.20
2019-03-25T22:56:52.759Z,2.12
2019-03-25T22:59:22.594Z,1.90
2019-03-25T23:01:52.349Z,1.83
2019-03-25T23:04:22.167Z,1.88
2019-03-25T23:06:51.878Z,1.80
2019-03-25T23:09:21.722Z,1.94
2019-03-25T23:11:51.601Z,1.96
2019-03-25T23:14:21.358Z,1.82
2019-03-25T23:16:51.113Z,1.72
2019-03-25T23:19:20.771Z,1.69
2019-03-25T23:21:50.492Z,1.62
2019-03-25T23:24:20.194Z,1.65
2019-03-25T23:26:49.886Z,1.61
2019-03-25T23:29:19.556Z,1.70
2019-03-25T23:31:49.905Z,1.51
2019-03-25T23:34:20.064Z,1.57
2019-03-25T23:36:49.867Z,1.56
2019-03-25T23:39:19.548Z,1.50
2019-03-25T23:41:49.297Z,1.52
2019-03-25T23:44:19.110Z,1.38
2019-03-25T23:46:48.871Z,1.48
2019-03-25T23:49:18.575Z,1.45
2019-03-25T23:51:51.340Z,1.48
2019-03-25T23:54:21.122Z,1.46
2019-03-25T23:56:50.899Z,1.49
2019-03-25T23:59:20.621Z,1.44
